sensor_id;sensor_type;location;lat;lon;timestamp;temperature;humidity
44537;DHT22;30245;51.966;6.292;2023-08-31T00:01:11;18.80;56.80
44537;DHT22;30245;51.966;6.292;2023-08-31T00:03:37;18.70;57.00
44537;DHT22;30245;51.966;6.292;2023-08-31T00:06:03;18.70;57.10
44537;DHT22;30245;51.966;6.292;2023-08-31T00:08:29;18.70;57.20
44537;DHT22;30245;51.966;6.292;2023-08-31T00:10:59;18.60;57.20
44537;DHT22;30245;51.966;6.292;2023-08-31T00:13:26;18.60;57.30
44537;DHT22;30245;51.966;6.292;2023-08-31T00:15:56;18.50;57.40
44537;DHT22;30245;51.966;6.292;2023-08-31T00:18:23;18.50;57.50
44537;DHT22;30245;51.966;6.292;2023-08-31T00:20:49;18.50;57.60
44537;DHT22;30245;51.966;6.292;2023-08-31T00:23:15;18.40;57.60
44537;DHT22;30245;51.966;6.292;2023-08-31T00:25:41;18.30;58.00
44537;DHT22;30245;51.966;6.292;2023-08-31T00:28:09;18.10;58.30
44537;DHT22;30245;51.966;6.292;2023-08-31T00:30:34;18.20;58.40
44537;DHT22;30245;51.966;6.292;2023-08-31T00:33:00;18.20;58.20
44537;DHT22;30245;51.966;6.292;2023-08-31T00:35:26;18.20;58.20
44537;DHT22;30245;51.966;6.292;2023-08-31T00:37:55;18.20;58.30
44537;DHT22;30245;51.966;6.292;2023-08-31T00:40:24;18.20;58.30
44537;DHT22;30245;51.966;6.292;2023-08-31T00:42:49;18.20;58.30
44537;DHT22;30245;51.966;6.292;2023-08-31T00:45:15;18.20;58.20
44537;DHT22;30245;51.966;6.292;2023-08-31T00:47:41;18.10;58.30
44537;DHT22;30245;51.966;6.292;2023-08-31T00:50:07;18.10;58.60
44537;DHT22;30245;51.966;6.292;2023-08-31T00:52:34;17.90;58.80
44537;DHT22;30245;51.966;6.292;2023-08-31T00:55:00;17.80;59.10
44537;DHT22;30245;51.966;6.292;2023-08-31T00:57:30;17.80;59.20
44537;DHT22;30245;51.966;6.292;2023-08-31T00:59:56;17.80;59.30
44537;DHT22;30245;51.966;6.292;2023-08-31T01:02:44;17.70;59.30
44537;DHT22;30245;51.966;6.292;2023-08-31T01:05:13;17.70;59.50
44537;DHT22;30245;51.966;6.292;2023-08-31T01:07:58;17.70;59.50
44537;DHT22;30245;51.966;6.292;2023-08-31T01:13:30;17.60;59.80
44537;DHT22;30245;51.966;6.292;2023-08-31T01:16:00;17.60;60.00
44537;DHT22;30245;51.966;6.292;2023-08-31T01:18:26;17.60;60.00
44537;DHT22;30245;51.966;6.292;2023-08-31T01:21:00;17.60;59.90
44537;DHT22;30245;51.966;6.292;2023-08-31T01:26:17;17.70;59.90
44537;DHT22;30245;51.966;6.292;2023-08-31T01:28:42;17.70;59.80
44537;DHT22;30245;51.966;6.292;2023-08-31T01:31:08;17.60;59.90
44537;DHT22;30245;51.966;6.292;2023-08-31T01:33:35;17.60;60.10
44537;DHT22;30245;51.966;6.292;2023-08-31T01:36:04;17.60;60.10
44537;DHT22;30245;51.966;6.292;2023-08-31T01:38:34;17.50;60.30
44537;DHT22;30245;51.966;6.292;2023-08-31T01:41:07;17.50;60.40
44537;DHT22;30245;51.966;6.292;2023-08-31T01:43:35;17.60;60.40
44537;DHT22;30245;51.966;6.292;2023-08-31T01:46:01;17.60;60.30
44537;DHT22;30245;51.966;6.292;2023-08-31T01:48:27;17.70;60.30
44537;DHT22;30245;51.966;6.292;2023-08-31T01:50:52;17.60;60.20
44537;DHT22;30245;51.966;6.292;2023-08-31T01:53:18;17.60;60.40
44537;DHT22;30245;51.966;6.292;2023-08-31T01:55:44;17.60;60.40
44537;DHT22;30245;51.966;6.292;2023-08-31T01:58:09;17.60;60.40
44537;DHT22;30245;51.966;6.292;2023-08-31T02:00:35;17.50;60.40
44537;DHT22;30245;51.966;6.292;2023-08-31T02:03:03;17.50;60.70
44537;DHT22;30245;51.966;6.292;2023-08-31T02:05:29;17.40;60.80
44537;DHT22;30245;51.966;6.292;2023-08-31T02:07:55;17.40;60.90
44537;DHT22;30245;51.966;6.292;2023-08-31T02:10:20;17.50;60.80
44537;DHT22;30245;51.966;6.292;2023-08-31T02:12:46;17.50;60.70
44537;DHT22;30245;51.966;6.292;2023-08-31T02:15:12;17.40;60.90
44537;DHT22;30245;51.966;6.292;2023-08-31T02:17:37;17.30;61.30
44537;DHT22;30245;51.966;6.292;2023-08-31T02:20:03;17.30;61.60
44537;DHT22;30245;51.966;6.292;2023-08-31T02:22:34;17.40;61.50
44537;DHT22;30245;51.966;6.292;2023-08-31T02:25:00;17.30;61.60
44537;DHT22;30245;51.966;6.292;2023-08-31T02:27:29;17.30;61.90
44537;DHT22;30245;51.966;6.292;2023-08-31T02:29:54;17.30;61.90
44537;DHT22;30245;51.966;6.292;2023-08-31T02:32:20;17.30;61.90
44537;DHT22;30245;51.966;6.292;2023-08-31T02:34:46;17.20;62.30
44537;DHT22;30245;51.966;6.292;2023-08-31T02:37:12;17.30;62.30
44537;DHT22;30245;51.966;6.292;2023-08-31T02:39:37;17.30;62.00
44537;DHT22;30245;51.966;6.292;2023-08-31T02:42:03;17.50;61.80
44537;DHT22;30245;51.966;6.292;2023-08-31T02:44:31;17.60;61.40
44537;DHT22;30245;51.966;6.292;2023-08-31T02:46:56;17.50;61.50
44537;DHT22;30245;51.966;6.292;2023-08-31T02:49:22;17.50;61.80
44537;DHT22;30245;51.966;6.292;2023-08-31T02:51:48;17.50;62.00
44537;DHT22;30245;51.966;6.292;2023-08-31T02:54:15;17.50;62.00
44537;DHT22;30245;51.966;6.292;2023-08-31T02:56:40;17.60;61.90
44537;DHT22;30245;51.966;6.292;2023-08-31T02:59:06;17.70;61.80
44537;DHT22;30245;51.966;6.292;2023-08-31T03:01:31;17.70;61.80
44537;DHT22;30245;51.966;6.292;2023-08-31T03:04:00;17.70;61.60
44537;DHT22;30245;51.966;6.292;2023-08-31T03:06:26;17.80;61.60
44537;DHT22;30245;51.966;6.292;2023-08-31T03:08:51;17.80;61.70
44537;DHT22;30245;51.966;6.292;2023-08-31T03:11:17;17.70;61.60
44537;DHT22;30245;51.966;6.292;2023-08-31T03:13:42;17.70;61.80
44537;DHT22;30245;51.966;6.292;2023-08-31T03:16:08;17.80;61.80
44537;DHT22;30245;51.966;6.292;2023-08-31T03:18:34;17.90;61.50
44537;DHT22;30245;51.966;6.292;2023-08-31T03:20:59;18.00;61.30
44537;DHT22;30245;51.966;6.292;2023-08-31T03:23:26;18.10;61.10
44537;DHT22;30245;51.966;6.292;2023-08-31T03:25:51;18.10;61.00
44537;DHT22;30245;51.966;6.292;2023-08-31T03:28:17;18.20;60.90
44537;DHT22;30245;51.966;6.292;2023-08-31T03:30:43;18.30;60.60
44537;DHT22;30245;51.966;6.292;2023-08-31T03:33:10;18.30;60.60
44537;DHT22;30245;51.966;6.292;2023-08-31T03:35:36;18.20;60.70
44537;DHT22;30245;51.966;6.292;2023-08-31T03:38:02;18.20;61.00
44537;DHT22;30245;51.966;6.292;2023-08-31T03:40:28;18.20;61.00
44537;DHT22;30245;51.966;6.292;2023-08-31T03:42:54;18.20;61.10
44537;DHT22;30245;51.966;6.292;2023-08-31T03:45:20;18.20;61.20
44537;DHT22;30245;51.966;6.292;2023-08-31T03:47:45;18.30;61.30
44537;DHT22;30245;51.966;6.292;2023-08-31T03:50:11;18.30;61.00
44537;DHT22;30245;51.966;6.292;2023-08-31T03:52:37;18.20;61.70
44537;DHT22;30245;51.966;6.292;2023-08-31T03:55:02;18.20;61.30
44537;DHT22;30245;51.966;6.292;2023-08-31T03:57:28;18.10;61.50
44537;DHT22;30245;51.966;6.292;2023-08-31T03:59:54;18.10;61.50
44537;DHT22;30245;51.966;6.292;2023-08-31T04:02:19;18.10;61.60
44537;DHT22;30245;51.966;6.292;2023-08-31T04:04:45;18.00;61.90
44537;DHT22;30245;51.966;6.292;2023-08-31T04:07:10;18.00;61.90
44537;DHT22;30245;51.966;6.292;2023-08-31T04:09:36;18.10;61.90
44537;DHT22;30245;51.966;6.292;2023-08-31T04:12:02;18.20;61.70
44537;DHT22;30245;51.966;6.292;2023-08-31T04:14:28;18.30;61.40
44537;DHT22;30245;51.966;6.292;2023-08-31T04:16:57;18.40;61.20
44537;DHT22;30245;51.966;6.292;2023-08-31T04:19:22;18.40;61.10
44537;DHT22;30245;51.966;6.292;2023-08-31T04:21:48;18.30;61.90
44537;DHT22;30245;51.966;6.292;2023-08-31T04:24:14;18.30;61.40
44537;DHT22;30245;51.966;6.292;2023-08-31T04:26:40;18.30;61.50
44537;DHT22;30245;51.966;6.292;2023-08-31T04:29:05;18.30;61.50
44537;DHT22;30245;51.966;6.292;2023-08-31T04:31:32;18.20;61.80
44537;DHT22;30245;51.966;6.292;2023-08-31T04:33:57;18.10;62.00
44537;DHT22;30245;51.966;6.292;2023-08-31T04:36:24;18.20;61.90
44537;DHT22;30245;51.966;6.292;2023-08-31T04:38:51;18.20;61.70
44537;DHT22;30245;51.966;6.292;2023-08-31T04:41:17;18.30;61.70
44537;DHT22;30245;51.966;6.292;2023-08-31T04:43:42;18.10;61.90
44537;DHT22;30245;51.966;6.292;2023-08-31T04:46:08;18.00;62.10
44537;DHT22;30245;51.966;6.292;2023-08-31T04:48:33;17.90;62.50
44537;DHT22;30245;51.966;6.292;2023-08-31T04:50:59;18.00;62.60
44537;DHT22;30245;51.966;6.292;2023-08-31T04:53:25;18.00;62.60
44537;DHT22;30245;51.966;6.292;2023-08-31T04:55:51;18.10;62.40
44537;DHT22;30245;51.966;6.292;2023-08-31T04:58:17;18.10;62.40
44537;DHT22;30245;51.966;6.292;2023-08-31T05:00:42;18.10;62.30
44537;DHT22;30245;51.966;6.292;2023-08-31T05:03:10;18.20;62.20
44537;DHT22;30245;51.966;6.292;2023-08-31T05:05:35;18.30;62.10
44537;DHT22;30245;51.966;6.292;2023-08-31T05:08:02;18.30;62.00
44537;DHT22;30245;51.966;6.292;2023-08-31T05:10:28;18.40;61.90
44537;DHT22;30245;51.966;6.292;2023-08-31T05:12:53;18.30;61.80
44537;DHT22;30245;51.966;6.292;2023-08-31T05:15:19;18.40;61.80
44537;DHT22;30245;51.966;6.292;2023-08-31T05:17:45;18.40;61.70
44537;DHT22;30245;51.966;6.292;2023-08-31T05:20:10;18.40;61.80
44537;DHT22;30245;51.966;6.292;2023-08-31T05:22:36;18.30;61.90
44537;DHT22;30245;51.966;6.292;2023-08-31T05:25:02;18.30;62.00
44537;DHT22;30245;51.966;6.292;2023-08-31T05:27:27;18.50;61.90
44537;DHT22;30245;51.966;6.292;2023-08-31T05:29:53;18.60;61.60
44537;DHT22;30245;51.966;6.292;2023-08-31T05:32:18;18.60;61.40
44537;DHT22;30245;51.966;6.292;2023-08-31T05:34:44;18.60;61.50
44537;DHT22;30245;51.966;6.292;2023-08-31T05:37:10;18.60;61.70
44537;DHT22;30245;51.966;6.292;2023-08-31T05:39:35;18.60;61.60
44537;DHT22;30245;51.966;6.292;2023-08-31T05:42:01;18.60;61.70
44537;DHT22;30245;51.966;6.292;2023-08-31T05:44:26;18.60;61.90
44537;DHT22;30245;51.966;6.292;2023-08-31T05:46:52;18.50;62.00
44537;DHT22;30245;51.966;6.292;2023-08-31T05:49:18;18.50;62.20
44537;DHT22;30245;51.966;6.292;2023-08-31T05:51:43;18.40;62.40
44537;DHT22;30245;51.966;6.292;2023-08-31T05:54:09;18.40;62.50
44537;DHT22;30245;51.966;6.292;2023-08-31T05:56:37;18.40;62.60
44537;DHT22;30245;51.966;6.292;2023-08-31T05:59:05;18.30;62.80
44537;DHT22;30245;51.966;6.292;2023-08-31T06:01:31;18.30;62.90
44537;DHT22;30245;51.966;6.292;2023-08-31T06:03:56;18.30;63.00
44537;DHT22;30245;51.966;6.292;2023-08-31T06:06:22;18.20;63.30
44537;DHT22;30245;51.966;6.292;2023-08-31T06:08:47;18.20;63.50
44537;DHT22;30245;51.966;6.292;2023-08-31T06:11:13;18.30;63.50
44537;DHT22;30245;51.966;6.292;2023-08-31T06:13:39;18.30;63.40
44537;DHT22;30245;51.966;6.292;2023-08-31T06:16:05;18.40;63.50
44537;DHT22;30245;51.966;6.292;2023-08-31T06:18:31;18.50;63.20
44537;DHT22;30245;51.966;6.292;2023-08-31T06:20:56;18.50;63.10
44537;DHT22;30245;51.966;6.292;2023-08-31T06:23:22;18.60;63.20
44537;DHT22;30245;51.966;6.292;2023-08-31T06:25:47;18.70;63.00
44537;DHT22;30245;51.966;6.292;2023-08-31T06:28:13;18.70;62.90
44537;DHT22;30245;51.966;6.292;2023-08-31T06:30:39;18.70;62.80
44537;DHT22;30245;51.966;6.292;2023-08-31T06:33:05;18.80;63.00
44537;DHT22;30245;51.966;6.292;2023-08-31T06:35:31;18.70;63.10
44537;DHT22;30245;51.966;6.292;2023-08-31T06:37:57;18.60;63.30
44537;DHT22;30245;51.966;6.292;2023-08-31T06:40:24;18.60;63.60
44537;DHT22;30245;51.966;6.292;2023-08-31T06:42:52;18.70;63.60
44537;DHT22;30245;51.966;6.292;2023-08-31T06:45:18;18.70;63.60
44537;DHT22;30245;51.966;6.292;2023-08-31T06:47:44;18.70;63.50
44537;DHT22;30245;51.966;6.292;2023-08-31T06:50:09;18.70;63.40
44537;DHT22;30245;51.966;6.292;2023-08-31T06:52:35;18.70;63.50
44537;DHT22;30245;51.966;6.292;2023-08-31T06:55:02;18.70;63.50
44537;DHT22;30245;51.966;6.292;2023-08-31T06:57:28;18.80;63.60
44537;DHT22;30245;51.966;6.292;2023-08-31T06:59:54;18.80;63.60
44537;DHT22;30245;51.966;6.292;2023-08-31T07:02:20;18.90;63.50
44537;DHT22;30245;51.966;6.292;2023-08-31T07:04:47;18.90;63.40
44537;DHT22;30245;51.966;6.292;2023-08-31T07:07:14;18.90;63.30
44537;DHT22;30245;51.966;6.292;2023-08-31T07:09:44;19.00;63.40
44537;DHT22;30245;51.966;6.292;2023-08-31T07:12:10;19.10;63.30
44537;DHT22;30245;51.966;6.292;2023-08-31T07:14:36;19.20;63.30
44537;DHT22;30245;51.966;6.292;2023-08-31T07:17:01;19.20;63.30
44537;DHT22;30245;51.966;6.292;2023-08-31T07:19:27;19.30;63.00
44537;DHT22;30245;51.966;6.292;2023-08-31T07:21:53;19.40;63.00
44537;DHT22;30245;51.966;6.292;2023-08-31T07:24:21;19.50;62.80
44537;DHT22;30245;51.966;6.292;2023-08-31T07:26:47;19.60;62.60
44537;DHT22;30245;51.966;6.292;2023-08-31T07:29:13;19.60;62.40
44537;DHT22;30245;51.966;6.292;2023-08-31T07:31:38;19.60;62.60
44537;DHT22;30245;51.966;6.292;2023-08-31T07:34:04;19.70;62.70
44537;DHT22;30245;51.966;6.292;2023-08-31T07:36:30;19.70;62.70
44537;DHT22;30245;51.966;6.292;2023-08-31T07:38:56;19.70;62.60
44537;DHT22;30245;51.966;6.292;2023-08-31T07:41:21;19.80;62.50
44537;DHT22;30245;51.966;6.292;2023-08-31T07:43:47;19.80;62.60
44537;DHT22;30245;51.966;6.292;2023-08-31T07:46:14;19.80;62.60
44537;DHT22;30245;51.966;6.292;2023-08-31T07:48:41;19.80;63.10
44537;DHT22;30245;51.966;6.292;2023-08-31T07:51:06;19.70;62.50
44537;DHT22;30245;51.966;6.292;2023-08-31T07:53:32;19.70;62.70
44537;DHT22;30245;51.966;6.292;2023-08-31T07:55:58;19.70;62.90
44537;DHT22;30245;51.966;6.292;2023-08-31T07:58:24;19.70;62.80
44537;DHT22;30245;51.966;6.292;2023-08-31T08:00:53;19.70;62.80
44537;DHT22;30245;51.966;6.292;2023-08-31T08:03:19;19.70;62.90
44537;DHT22;30245;51.966;6.292;2023-08-31T08:05:44;19.70;62.90
44537;DHT22;30245;51.966;6.292;2023-08-31T08:08:10;19.70;62.90
44537;DHT22;30245;51.966;6.292;2023-08-31T08:10:36;19.80;62.90
44537;DHT22;30245;51.966;6.292;2023-08-31T08:13:02;19.80;62.60
44537;DHT22;30245;51.966;6.292;2023-08-31T08:15:28;19.90;62.50
44537;DHT22;30245;51.966;6.292;2023-08-31T08:17:54;19.90;62.20
44537;DHT22;30245;51.966;6.292;2023-08-31T08:20:20;20.00;62.10
44537;DHT22;30245;51.966;6.292;2023-08-31T08:22:45;20.10;62.00
44537;DHT22;30245;51.966;6.292;2023-08-31T08:25:13;20.20;61.80
44537;DHT22;30245;51.966;6.292;2023-08-31T08:27:38;20.20;61.80
44537;DHT22;30245;51.966;6.292;2023-08-31T08:30:04;20.30;61.80
44537;DHT22;30245;51.966;6.292;2023-08-31T08:32:30;20.30;61.70
44537;DHT22;30245;51.966;6.292;2023-08-31T08:34:55;20.40;61.60
44537;DHT22;30245;51.966;6.292;2023-08-31T08:37:21;20.40;61.40
44537;DHT22;30245;51.966;6.292;2023-08-31T08:39:50;20.40;61.50
44537;DHT22;30245;51.966;6.292;2023-08-31T08:42:18;20.50;61.30
44537;DHT22;30245;51.966;6.292;2023-08-31T08:44:44;20.60;60.90
44537;DHT22;30245;51.966;6.292;2023-08-31T08:47:11;20.60;60.80
44537;DHT22;30245;51.966;6.292;2023-08-31T08:49:37;20.70;60.40
44537;DHT22;30245;51.966;6.292;2023-08-31T08:52:03;20.70;60.10
44537;DHT22;30245;51.966;6.292;2023-08-31T08:54:30;20.70;60.10
44537;DHT22;30245;51.966;6.292;2023-08-31T08:56:56;20.70;60.20
44537;DHT22;30245;51.966;6.292;2023-08-31T08:59:22;20.70;60.20
44537;DHT22;30245;51.966;6.292;2023-08-31T09:01:48;20.80;60.30
44537;DHT22;30245;51.966;6.292;2023-08-31T09:04:14;20.90;60.00
44537;DHT22;30245;51.966;6.292;2023-08-31T09:06:40;20.90;59.80
44537;DHT22;30245;51.966;6.292;2023-08-31T09:09:08;21.00;59.70
44537;DHT22;30245;51.966;6.292;2023-08-31T09:11:35;21.10;59.60
44537;DHT22;30245;51.966;6.292;2023-08-31T09:14:19;21.10;59.50
44537;DHT22;30245;51.966;6.292;2023-08-31T09:16:49;21.20;60.10
44537;DHT22;30245;51.966;6.292;2023-08-31T09:19:25;21.20;59.50
44537;DHT22;30245;51.966;6.292;2023-08-31T09:21:55;21.30;59.50
44537;DHT22;30245;51.966;6.292;2023-08-31T09:24:21;21.30;59.40
44537;DHT22;30245;51.966;6.292;2023-08-31T09:26:53;21.40;59.30
44537;DHT22;30245;51.966;6.292;2023-08-31T09:29:19;21.40;59.40
44537;DHT22;30245;51.966;6.292;2023-08-31T09:31:45;21.50;60.00
44537;DHT22;30245;51.966;6.292;2023-08-31T09:34:12;21.50;59.40
44537;DHT22;30245;51.966;6.292;2023-08-31T09:36:38;21.60;59.90
44537;DHT22;30245;51.966;6.292;2023-08-31T09:39:05;21.70;59.30
44537;DHT22;30245;51.966;6.292;2023-08-31T09:41:32;21.80;59.10
44537;DHT22;30245;51.966;6.292;2023-08-31T09:44:15;21.90;59.10
44537;DHT22;30245;51.966;6.292;2023-08-31T09:46:42;22.20;58.60
44537;DHT22;30245;51.966;6.292;2023-08-31T09:49:09;22.20;58.00
44537;DHT22;30245;51.966;6.292;2023-08-31T09:51:37;22.30;58.10
44537;DHT22;30245;51.966;6.292;2023-08-31T09:54:05;22.50;58.00
44537;DHT22;30245;51.966;6.292;2023-08-31T09:56:33;22.70;57.20
44537;DHT22;30245;51.966;6.292;2023-08-31T09:58:59;22.90;56.90
44537;DHT22;30245;51.966;6.292;2023-08-31T10:01:25;23.10;56.40
44537;DHT22;30245;51.966;6.292;2023-08-31T10:03:51;23.20;56.10
44537;DHT22;30245;51.966;6.292;2023-08-31T10:06:17;23.40;55.50
44537;DHT22;30245;51.966;6.292;2023-08-31T10:08:44;23.60;54.90
44537;DHT22;30245;51.966;6.292;2023-08-31T10:11:10;24.00;53.90
44537;DHT22;30245;51.966;6.292;2023-08-31T10:13:40;24.50;53.00
44537;DHT22;30245;51.966;6.292;2023-08-31T10:16:06;24.60;52.10
44537;DHT22;30245;51.966;6.292;2023-08-31T10:18:34;24.60;52.10
44537;DHT22;30245;51.966;6.292;2023-08-31T10:21:02;24.60;51.90
44537;DHT22;30245;51.966;6.292;2023-08-31T10:23:29;24.70;51.60
44537;DHT22;30245;51.966;6.292;2023-08-31T10:28:25;24.60;51.30
44537;DHT22;30245;51.966;6.292;2023-08-31T10:31:06;24.60;51.30
44537;DHT22;30245;51.966;6.292;2023-08-31T10:33:43;25.10;50.80
44537;DHT22;30245;51.966;6.292;2023-08-31T10:36:19;26.00;49.40
44537;DHT22;30245;51.966;6.292;2023-08-31T10:39:31;26.60;48.20
44537;DHT22;30245;51.966;6.292;2023-08-31T10:41:34;26.60;47.80
44537;DHT22;30245;51.966;6.292;2023-08-31T10:44:00;26.30;47.90
44537;DHT22;30245;51.966;6.292;2023-08-31T10:46:30;25.80;48.40
44537;DHT22;30245;51.966;6.292;2023-08-31T10:48:59;25.50;48.80
44537;DHT22;30245;51.966;6.292;2023-08-31T10:51:30;25.20;49.40
44537;DHT22;30245;51.966;6.292;2023-08-31T10:56:32;24.80;50.60
44537;DHT22;30245;51.966;6.292;2023-08-31T10:58:59;24.70;50.80
44537;DHT22;30245;51.966;6.292;2023-08-31T11:02:01;24.50;50.90
44537;DHT22;30245;51.966;6.292;2023-08-31T11:04:29;24.40;51.00
44537;DHT22;30245;51.966;6.292;2023-08-31T11:07:15;24.30;51.30
44537;DHT22;30245;51.966;6.292;2023-08-31T11:09:41;24.30;51.30
44537;DHT22;30245;51.966;6.292;2023-08-31T11:12:07;24.30;51.10
44537;DHT22;30245;51.966;6.292;2023-08-31T11:14:33;24.50;51.00
44537;DHT22;30245;51.966;6.292;2023-08-31T11:16:59;24.60;50.60
44537;DHT22;30245;51.966;6.292;2023-08-31T11:19:27;24.70;51.00
44537;DHT22;30245;51.966;6.292;2023-08-31T11:21:54;25.00;51.00
44537;DHT22;30245;51.966;6.292;2023-08-31T11:24:20;25.40;50.70
44537;DHT22;30245;51.966;6.292;2023-08-31T11:26:56;25.70;50.40
44537;DHT22;30245;51.966;6.292;2023-08-31T11:29:21;25.80;50.10
44537;DHT22;30245;51.966;6.292;2023-08-31T11:31:47;25.80;50.40
44537;DHT22;30245;51.966;6.292;2023-08-31T11:34:17;25.70;50.80
44537;DHT22;30245;51.966;6.292;2023-08-31T11:36:43;25.60;50.90
44537;DHT22;30245;51.966;6.292;2023-08-31T11:39:10;25.60;51.00
44537;DHT22;30245;51.966;6.292;2023-08-31T11:41:36;25.60;51.50
44537;DHT22;30245;51.966;6.292;2023-08-31T11:44:10;25.70;51.80
44537;DHT22;30245;51.966;6.292;2023-08-31T11:46:37;25.80;50.70
44537;DHT22;30245;51.966;6.292;2023-08-31T11:49:03;25.70;50.00
44537;DHT22;30245;51.966;6.292;2023-08-31T11:51:30;25.60;49.30
44537;DHT22;30245;51.966;6.292;2023-08-31T11:53:56;25.50;49.10
44537;DHT22;30245;51.966;6.292;2023-08-31T11:56:23;25.50;49.30
44537;DHT22;30245;51.966;6.292;2023-08-31T11:58:51;25.60;49.40
44537;DHT22;30245;51.966;6.292;2023-08-31T12:01:22;25.70;49.10
44537;DHT22;30245;51.966;6.292;2023-08-31T12:03:49;25.90;48.30
44537;DHT22;30245;51.966;6.292;2023-08-31T12:06:16;26.10;48.00
44537;DHT22;30245;51.966;6.292;2023-08-31T12:08:42;26.20;47.50
44537;DHT22;30245;51.966;6.292;2023-08-31T12:11:08;26.30;46.80
44537;DHT22;30245;51.966;6.292;2023-08-31T12:13:34;26.30;46.60
44537;DHT22;30245;51.966;6.292;2023-08-31T12:16:00;26.20;46.70
44537;DHT22;30245;51.966;6.292;2023-08-31T12:18:29;26.20;46.20
44537;DHT22;30245;51.966;6.292;2023-08-31T12:20:57;26.20;46.10
44537;DHT22;30245;51.966;6.292;2023-08-31T12:23:23;26.20;45.90
44537;DHT22;30245;51.966;6.292;2023-08-31T12:25:52;26.40;45.90
44537;DHT22;30245;51.966;6.292;2023-08-31T12:28:19;26.40;45.10
44537;DHT22;30245;51.966;6.292;2023-08-31T12:30:53;26.40;44.70
44537;DHT22;30245;51.966;6.292;2023-08-31T12:33:20;26.20;44.60
44537;DHT22;30245;51.966;6.292;2023-08-31T12:35:46;26.10;45.20
44537;DHT22;30245;51.966;6.292;2023-08-31T12:38:13;26.10;45.60
44537;DHT22;30245;51.966;6.292;2023-08-31T12:40:38;26.10;44.90
44537;DHT22;30245;51.966;6.292;2023-08-31T12:43:05;26.10;44.30
44537;DHT22;30245;51.966;6.292;2023-08-31T12:45:30;26.30;44.10
44537;DHT22;30245;51.966;6.292;2023-08-31T12:47:56;26.50;43.60
44537;DHT22;30245;51.966;6.292;2023-08-31T12:50:22;26.40;43.10
44537;DHT22;30245;51.966;6.292;2023-08-31T12:52:48;26.30;43.30
44537;DHT22;30245;51.966;6.292;2023-08-31T12:55:14;26.40;43.60
44537;DHT22;30245;51.966;6.292;2023-08-31T12:57:40;26.40;43.40
44537;DHT22;30245;51.966;6.292;2023-08-31T13:00:07;26.50;44.00
44537;DHT22;30245;51.966;6.292;2023-08-31T13:02:40;26.70;44.50
44537;DHT22;30245;51.966;6.292;2023-08-31T13:05:06;27.10;44.10
44537;DHT22;30245;51.966;6.292;2023-08-31T13:07:37;27.30;43.50
44537;DHT22;30245;51.966;6.292;2023-08-31T13:10:04;27.60;42.90
44537;DHT22;30245;51.966;6.292;2023-08-31T13:12:33;27.80;41.90
44537;DHT22;30245;51.966;6.292;2023-08-31T13:14:59;27.70;41.70
44537;DHT22;30245;51.966;6.292;2023-08-31T13:17:25;27.70;42.20
44537;DHT22;30245;51.966;6.292;2023-08-31T13:19:53;27.90;42.00
44537;DHT22;30245;51.966;6.292;2023-08-31T13:22:18;28.30;41.60
44537;DHT22;30245;51.966;6.292;2023-08-31T13:24:45;28.40;40.50
44537;DHT22;30245;51.966;6.292;2023-08-31T13:27:10;28.30;40.60
44537;DHT22;30245;51.966;6.292;2023-08-31T13:29:36;28.50;40.60
44537;DHT22;30245;51.966;6.292;2023-08-31T13:32:02;28.60;40.40
44537;DHT22;30245;51.966;6.292;2023-08-31T13:34:27;28.50;40.10
44537;DHT22;30245;51.966;6.292;2023-08-31T13:36:53;28.40;39.90
44537;DHT22;30245;51.966;6.292;2023-08-31T13:39:19;28.20;39.90
44537;DHT22;30245;51.966;6.292;2023-08-31T13:41:44;28.10;40.50
44537;DHT22;30245;51.966;6.292;2023-08-31T13:44:11;28.10;40.60
44537;DHT22;30245;51.966;6.292;2023-08-31T13:46:37;28.20;40.40
44537;DHT22;30245;51.966;6.292;2023-08-31T13:49:03;28.30;39.80
44537;DHT22;30245;51.966;6.292;2023-08-31T13:51:29;28.40;39.60
44537;DHT22;30245;51.966;6.292;2023-08-31T13:53:55;28.50;39.20
44537;DHT22;30245;51.966;6.292;2023-08-31T13:56:21;28.30;38.30
44537;DHT22;30245;51.966;6.292;2023-08-31T13:58:47;28.20;38.20
44537;DHT22;30245;51.966;6.292;2023-08-31T14:01:12;28.00;37.80
44537;DHT22;30245;51.966;6.292;2023-08-31T14:03:38;27.80;37.60
44537;DHT22;30245;51.966;6.292;2023-08-31T14:06:04;27.70;37.70
44537;DHT22;30245;51.966;6.292;2023-08-31T14:08:29;27.70;37.40
44537;DHT22;30245;51.966;6.292;2023-08-31T14:10:55;27.80;37.40
44537;DHT22;30245;51.966;6.292;2023-08-31T14:13:21;28.00;36.90
44537;DHT22;30245;51.966;6.292;2023-08-31T14:15:47;27.90;36.90
44537;DHT22;30245;51.966;6.292;2023-08-31T14:18:13;27.80;37.00
44537;DHT22;30245;51.966;6.292;2023-08-31T14:20:39;27.80;37.00
44537;DHT22;30245;51.966;6.292;2023-08-31T14:23:05;27.70;37.10
44537;DHT22;30245;51.966;6.292;2023-08-31T14:25:37;27.60;36.50
44537;DHT22;30245;51.966;6.292;2023-08-31T14:28:04;27.30;36.60
44537;DHT22;30245;51.966;6.292;2023-08-31T14:30:30;27.20;36.70
44537;DHT22;30245;51.966;6.292;2023-08-31T14:32:56;27.00;36.70
44537;DHT22;30245;51.966;6.292;2023-08-31T14:35:21;26.80;36.70
44537;DHT22;30245;51.966;6.292;2023-08-31T14:37:47;26.70;36.80
44537;DHT22;30245;51.966;6.292;2023-08-31T14:40:13;26.60;36.90
44537;DHT22;30245;51.966;6.292;2023-08-31T14:42:40;26.60;37.00
44537;DHT22;30245;51.966;6.292;2023-08-31T14:45:06;26.50;37.10
44537;DHT22;30245;51.966;6.292;2023-08-31T14:47:32;26.60;37.50
44537;DHT22;30245;51.966;6.292;2023-08-31T14:49:57;26.70;37.30
44537;DHT22;30245;51.966;6.292;2023-08-31T14:52:23;26.80;37.30
44537;DHT22;30245;51.966;6.292;2023-08-31T14:54:49;26.90;37.20
44537;DHT22;30245;51.966;6.292;2023-08-31T14:57:14;26.90;37.20
44537;DHT22;30245;51.966;6.292;2023-08-31T14:59:40;26.90;37.00
44537;DHT22;30245;51.966;6.292;2023-08-31T15:02:07;26.70;37.30
44537;DHT22;30245;51.966;6.292;2023-08-31T15:04:33;26.70;37.40
44537;DHT22;30245;51.966;6.292;2023-08-31T15:06:59;26.70;37.60
44537;DHT22;30245;51.966;6.292;2023-08-31T15:09:25;26.70;37.60
44537;DHT22;30245;51.966;6.292;2023-08-31T15:11:51;26.70;37.50
44537;DHT22;30245;51.966;6.292;2023-08-31T15:14:17;26.70;37.50
44537;DHT22;30245;51.966;6.292;2023-08-31T15:16:42;26.70;37.40
44537;DHT22;30245;51.966;6.292;2023-08-31T15:19:08;26.70;37.50
44537;DHT22;30245;51.966;6.292;2023-08-31T15:21:34;26.60;37.50
44537;DHT22;30245;51.966;6.292;2023-08-31T15:24:00;26.50;37.70
44537;DHT22;30245;51.966;6.292;2023-08-31T15:26:25;26.40;38.40
44537;DHT22;30245;51.966;6.292;2023-08-31T15:28:51;26.40;38.00
44537;DHT22;30245;51.966;6.292;2023-08-31T15:31:17;26.40;37.80
44537;DHT22;30245;51.966;6.292;2023-08-31T15:33:43;26.40;37.90
44537;DHT22;30245;51.966;6.292;2023-08-31T15:36:09;26.50;37.90
44537;DHT22;30245;51.966;6.292;2023-08-31T15:38:36;26.50;37.90